sensor_id;sensor_type;location;lat;lon;timestamp;pressure;altitude;pressure_sealevel;temperature;humidity
62418;BME280;48456;54.242;10.280;2024-02-23T00:01:05;97220.81;;;7.64;100.00
62418;BME280;48456;54.242;10.280;2024-02-23T00:03:33;97329.97;;;7.55;100.00
62418;BME280;48456;54.242;10.280;2024-02-23T00:06:00;97326.31;;;7.21;100.00
62418;BME280;48456;54.242;10.280;2024-02-23T00:08:27;97334.25;;;7.00;100.00
62418;BME280;48456;54.242;10.280;2024-02-23T00:10:53;97336.47;;;6.69;100.00
62418;BME280;48456;54.242;10.280;2024-02-23T00:13:19;97379.72;;;6.81;100.00
62418;BME280;48456;54.242;10.280;2024-02-23T00:15:46;97397.34;;;6.79;100.00
62418;BME280;48456;54.242;10.280;2024-02-23T00:18:12;97387.56;;;6.62;100.00
62418;BME280;48456;54.242;10.280;2024-02-23T00:20:41;97399.38;;;6.72;100.00
62418;BME280;48456;54.242;10.280;2024-02-23T00:23:07;97375.75;;;6.52;100.00
62418;BME280;48456;54.242;10.280;2024-02-23T00:25:34;97395.72;;;6.56;100.00
62418;BME280;48456;54.242;10.280;2024-02-23T00:28:00;97372.72;;;6.19;100.00
62418;BME280;48456;54.242;10.280;2024-02-23T00:30:26;97364.66;;;6.02;100.00
62418;BME280;48456;54.242;10.280;2024-02-23T00:32:53;97396.78;;;6.08;100.00
62418;BME280;48456;54.242;10.280;2024-02-23T00:35:20;97377.00;;;6.00;100.00
62418;BME280;48456;54.242;10.280;2024-02-23T00:37:46;97375.38;;;5.97;100.00
62418;BME280;48456;54.242;10.280;2024-02-23T00:40:13;97392.88;;;6.19;100.00
62418;BME280;48456;54.242;10.280;2024-02-23T00:42:39;97397.09;;;6.23;100.00
62418;BME280;48456;54.242;10.280;2024-02-23T00:45:06;97428.59;;;6.23;100.00
62418;BME280;48456;54.242;10.280;2024-02-23T00:47:32;97431.09;;;6.04;100.00
62418;BME280;48456;54.242;10.280;2024-02-23T00:49:59;97511.38;;;6.96;100.00
62418;BME280;48456;54.242;10.280;2024-02-23T00:52:26;97519.19;;;7.58;100.00
62418;BME280;48456;54.242;10.280;2024-02-23T00:54:52;97517.94;;;7.86;100.00
62418;BME280;48456;54.242;10.280;2024-02-23T00:57:18;97517.22;;;8.02;100.00
62418;BME280;48456;54.242;10.280;2024-02-23T00:59:52;97529.25;;;8.08;100.00
62418;BME280;48456;54.242;10.280;2024-02-23T01:02:18;97546.75;;;8.09;100.00
62418;BME280;48456;54.242;10.280;2024-02-23T01:04:45;97558.56;;;8.00;100.00
62418;BME280;48456;54.242;10.280;2024-02-23T01:07:11;97563.81;;;7.80;100.00
62418;BME280;48456;54.242;10.280;2024-02-23T01:09:37;97578.59;;;7.22;100.00
62418;BME280;48456;54.242;10.280;2024-02-23T01:12:04;97597.69;;;6.40;100.00
62418;BME280;48456;54.242;10.280;2024-02-23T01:14:30;97571.69;;;5.36;100.00
62418;BME280;48456;54.242;10.280;2024-02-23T01:16:57;97538.78;;;5.02;100.00
62418;BME280;48456;54.242;10.280;2024-02-23T01:19:23;97533.06;;;4.90;100.00
62418;BME280;48456;54.242;10.280;2024-02-23T01:21:50;97538.94;;;4.97;100.00
62418;BME280;48456;54.242;10.280;2024-02-23T01:24:26;97531.84;;;5.01;100.00
62418;BME280;48456;54.242;10.280;2024-02-23T01:26:53;97541.78;;;4.91;100.00
62418;BME280;48456;54.242;10.280;2024-02-23T01:29:22;97558.66;;;4.82;100.00
62418;BME280;48456;54.242;10.280;2024-02-23T01:31:54;97571.88;;;5.04;100.00
62418;BME280;48456;54.242;10.280;2024-02-23T01:34:24;97576.56;;;4.94;100.00
62418;BME280;48456;54.242;10.280;2024-02-23T01:36:53;97590.00;;;4.85;100.00
62418;BME280;48456;54.242;10.280;2024-02-23T01:39:20;97595.81;;;4.66;100.00
62418;BME280;48456;54.242;10.280;2024-02-23T01:41:49;97613.75;;;4.79;100.00
62418;BME280;48456;54.242;10.280;2024-02-23T01:44:18;97627.84;;;4.75;100.00
62418;BME280;48456;54.242;10.280;2024-02-23T01:46:47;97625.81;;;4.83;100.00
62418;BME280;48456;54.242;10.280;2024-02-23T01:49:14;97689.22;;;4.94;100.00
62418;BME280;48456;54.242;10.280;2024-02-23T01:51:41;97716.00;;;5.31;100.00
62418;BME280;48456;54.242;10.280;2024-02-23T01:54:07;97727.78;;;5.45;100.00
62418;BME280;48456;54.242;10.280;2024-02-23T01:56:34;97730.97;;;5.55;100.00
62418;BME280;48456;54.242;10.280;2024-02-23T01:59:03;97754.19;;;5.66;100.00
62418;BME280;48456;54.242;10.280;2024-02-23T02:01:30;97756.69;;;5.70;100.00
62418;BME280;48456;54.242;10.280;2024-02-23T02:03:57;97768.84;;;5.73;100.00
62418;BME280;48456;54.242;10.280;2024-02-23T02:06:24;97766.91;;;5.78;100.00
62418;BME280;48456;54.242;10.280;2024-02-23T02:08:50;97785.28;;;5.78;100.00
62418;BME280;48456;54.242;10.280;2024-02-23T02:11:19;97786.97;;;5.79;100.00
62418;BME280;48456;54.242;10.280;2024-02-23T02:13:45;97783.28;;;5.85;100.00
62418;BME280;48456;54.242;10.280;2024-02-23T02:16:12;97800.00;;;5.82;100.00
62418;BME280;48456;54.242;10.280;2024-02-23T02:18:38;97812.19;;;5.83;100.00
62418;BME280;48456;54.242;10.280;2024-02-23T02:21:05;97830.50;;;5.85;100.00
62418;BME280;48456;54.242;10.280;2024-02-23T02:23:31;97832.47;;;5.78;100.00
62418;BME280;48456;54.242;10.280;2024-02-23T02:25:58;97818.53;;;5.78;100.00
62418;BME280;48456;54.242;10.280;2024-02-23T02:28:25;97849.44;;;5.68;100.00
62418;BME280;48456;54.242;10.280;2024-02-23T02:30:51;97850.41;;;5.65;100.00
62418;BME280;48456;54.242;10.280;2024-02-23T02:33:21;97866.41;;;5.56;100.00
62418;BME280;48456;54.242;10.280;2024-02-23T02:35:49;97869.50;;;5.40;100.00
62418;BME280;48456;54.242;10.280;2024-02-23T02:38:18;97892.41;;;5.35;100.00
62418;BME280;48456;54.242;10.280;2024-02-23T02:40:45;97896.78;;;5.35;100.00
62418;BME280;48456;54.242;10.280;2024-02-23T02:43:11;97909.97;;;5.31;100.00
62418;BME280;48456;54.242;10.280;2024-02-23T02:45:37;97918.00;;;5.25;100.00
62418;BME280;48456;54.242;10.280;2024-02-23T02:48:04;97936.22;;;5.30;100.00
62418;BME280;48456;54.242;10.280;2024-02-23T02:50:31;97944.91;;;5.32;100.00
62418;BME280;48456;54.242;10.280;2024-02-23T02:52:58;97928.50;;;5.25;100.00
62418;BME280;48456;54.242;10.280;2024-02-23T02:55:24;97947.94;;;5.16;100.00
62418;BME280;48456;54.242;10.280;2024-02-23T02:57:51;97954.28;;;5.09;100.00
62418;BME280;48456;54.242;10.280;2024-02-23T03:00:18;97968.41;;;5.03;100.00
62418;BME280;48456;54.242;10.280;2024-02-23T03:02:44;97956.19;;;5.02;100.00
62418;BME280;48456;54.242;10.280;2024-02-23T03:05:10;97951.94;;;4.98;100.00
62418;BME280;48456;54.242;10.280;2024-02-23T03:07:37;97965.09;;;4.97;100.00
62418;BME280;48456;54.242;10.280;2024-02-23T03:10:04;97965.91;;;4.99;100.00
62418;BME280;48456;54.242;10.280;2024-02-23T03:12:30;97972.97;;;4.97;100.00
62418;BME280;48456;54.242;10.280;2024-02-23T03:14:56;97979.22;;;4.91;100.00
62418;BME280;48456;54.242;10.280;2024-02-23T03:17:23;97985.44;;;4.87;100.00
62418;BME280;48456;54.242;10.280;2024-02-23T03:19:50;97996.00;;;4.84;100.00
62418;BME280;48456;54.242;10.280;2024-02-23T03:22:17;98001.13;;;4.88;100.00
62418;BME280;48456;54.242;10.280;2024-02-23T03:24:43;98004.47;;;4.93;100.00
62418;BME280;48456;54.242;10.280;2024-02-23T03:27:09;98030.53;;;4.98;100.00
62418;BME280;48456;54.242;10.280;2024-02-23T03:29:37;98029.66;;;4.99;100.00
62418;BME280;48456;54.242;10.280;2024-02-23T03:32:04;98036.03;;;4.89;100.00
62418;BME280;48456;54.242;10.280;2024-02-23T03:34:31;98039.50;;;4.89;100.00
62418;BME280;48456;54.242;10.280;2024-02-23T03:36:57;98050.72;;;4.94;100.00
62418;BME280;48456;54.242;10.280;2024-02-23T03:39:24;98040.31;;;4.91;100.00
62418;BME280;48456;54.242;10.280;2024-02-23T03:41:51;98050.00;;;4.89;100.00
62418;BME280;48456;54.242;10.280;2024-02-23T03:44:17;98055.19;;;4.91;100.00
62418;BME280;48456;54.242;10.280;2024-02-23T03:46:44;98057.91;;;4.86;100.00
62418;BME280;48456;54.242;10.280;2024-02-23T03:49:10;98080.44;;;4.93;100.00
62418;BME280;48456;54.242;10.280;2024-02-23T03:51:38;98098.78;;;4.93;100.00
62418;BME280;48456;54.242;10.280;2024-02-23T03:54:06;98090.78;;;4.98;100.00
62418;BME280;48456;54.242;10.280;2024-02-23T03:56:38;98104.09;;;4.90;100.00
62418;BME280;48456;54.242;10.280;2024-02-23T03:59:06;98107.06;;;4.75;100.00
62418;BME280;48456;54.242;10.280;2024-02-23T04:01:38;98100.97;;;4.76;100.00
62418;BME280;48456;54.242;10.280;2024-02-23T04:04:06;98110.63;;;4.72;100.00
62418;BME280;48456;54.242;10.280;2024-02-23T04:06:35;98122.63;;;4.83;100.00
62418;BME280;48456;54.242;10.280;2024-02-23T04:09:04;98130.31;;;4.89;100.00
62418;BME280;48456;54.242;10.280;2024-02-23T04:11:32;98132.19;;;4.84;100.00
62418;BME280;48456;54.242;10.280;2024-02-23T04:13:58;98156.66;;;4.84;100.00
62418;BME280;48456;54.242;10.280;2024-02-23T04:16:26;98156.94;;;4.72;100.00
62418;BME280;48456;54.242;10.280;2024-02-23T04:18:53;98168.41;;;4.66;100.00
62418;BME280;48456;54.242;10.280;2024-02-23T04:21:20;98169.44;;;4.59;100.00
62418;BME280;48456;54.242;10.280;2024-02-23T04:23:48;98159.84;;;4.58;100.00
62418;BME280;48456;54.242;10.280;2024-02-23T04:26:14;98178.19;;;4.58;100.00
62418;BME280;48456;54.242;10.280;2024-02-23T04:28:41;98180.75;;;4.61;100.00
62418;BME280;48456;54.242;10.280;2024-02-23T04:31:08;98184.22;;;4.60;100.00
62418;BME280;48456;54.242;10.280;2024-02-23T04:33:35;98189.38;;;4.64;100.00
62418;BME280;48456;54.242;10.280;2024-02-23T04:36:11;98200.66;;;4.66;100.00
62418;BME280;48456;54.242;10.280;2024-02-23T04:38:38;98203.00;;;4.79;100.00
62418;BME280;48456;54.242;10.280;2024-02-23T04:41:04;98197.75;;;4.80;100.00
62418;BME280;48456;54.242;10.280;2024-02-23T04:43:34;98221.06;;;4.91;100.00
62418;BME280;48456;54.242;10.280;2024-02-23T04:46:00;98214.06;;;4.93;100.00
62418;BME280;48456;54.242;10.280;2024-02-23T04:48:27;98231.44;;;4.98;100.00
62418;BME280;48456;54.242;10.280;2024-02-23T04:50:53;98239.16;;;5.02;100.00
62418;BME280;48456;54.242;10.280;2024-02-23T04:53:19;98247.94;;;5.01;100.00
62418;BME280;48456;54.242;10.280;2024-02-23T04:55:46;98253.19;;;5.00;100.00
62418;BME280;48456;54.242;10.280;2024-02-23T04:58:12;98267.16;;;5.02;100.00
62418;BME280;48456;54.242;10.280;2024-02-23T05:00:39;98268.00;;;5.02;100.00
62418;BME280;48456;54.242;10.280;2024-02-23T05:03:06;98269.59;;;5.08;100.00
62418;BME280;48456;54.242;10.280;2024-02-23T05:05:36;98283.56;;;5.10;100.00
62418;BME280;48456;54.242;10.280;2024-02-23T05:08:03;98289.78;;;5.04;100.00
62418;BME280;48456;54.242;10.280;2024-02-23T05:10:29;98287.09;;;5.09;100.00
62418;BME280;48456;54.242;10.280;2024-02-23T05:12:56;98291.53;;;5.04;100.00
62418;BME280;48456;54.242;10.280;2024-02-23T05:15:22;98291.66;;;4.99;100.00
62418;BME280;48456;54.242;10.280;2024-02-23T05:17:49;98298.69;;;4.96;100.00
62418;BME280;48456;54.242;10.280;2024-02-23T05:20:15;98299.66;;;4.91;100.00
62418;BME280;48456;54.242;10.280;2024-02-23T05:22:42;98302.38;;;4.88;100.00
62418;BME280;48456;54.242;10.280;2024-02-23T05:25:08;98308.47;;;4.87;100.00
62418;BME280;48456;54.242;10.280;2024-02-23T05:27:35;98312.28;;;4.72;100.00
62418;BME280;48456;54.242;10.280;2024-02-23T05:30:01;98307.03;;;4.74;100.00
62418;BME280;48456;54.242;10.280;2024-02-23T05:32:28;98308.81;;;4.73;100.00
62418;BME280;48456;54.242;10.280;2024-02-23T05:34:55;98328.78;;;4.77;100.00
62418;BME280;48456;54.242;10.280;2024-02-23T05:37:23;98306.22;;;4.70;100.00
62418;BME280;48456;54.242;10.280;2024-02-23T05:39:50;98332.28;;;4.76;100.00
62418;BME280;48456;54.242;10.280;2024-02-23T05:42:17;98330.56;;;4.75;100.00
62418;BME280;48456;54.242;10.280;2024-02-23T05:44:43;98327.88;;;4.80;100.00
62418;BME280;48456;54.242;10.280;2024-02-23T05:47:10;98332.19;;;4.81;100.00
62418;BME280;48456;54.242;10.280;2024-02-23T05:49:37;98340.97;;;4.80;100.00
62418;BME280;48456;54.242;10.280;2024-02-23T05:52:03;98335.63;;;4.83;100.00
62418;BME280;48456;54.242;10.280;2024-02-23T05:54:29;98348.81;;;4.80;100.00
62418;BME280;48456;54.242;10.280;2024-02-23T05:56:56;98341.97;;;4.73;100.00
62418;BME280;48456;54.242;10.280;2024-02-23T05:59:22;98355.84;;;4.78;100.00
62418;BME280;48456;54.242;10.280;2024-02-23T06:01:49;98375.13;;;4.74;100.00
62418;BME280;48456;54.242;10.280;2024-02-23T06:04:15;98371.69;;;4.72;100.00
62418;BME280;48456;54.242;10.280;2024-02-23T06:06:44;98379.63;;;4.65;100.00
62418;BME280;48456;54.242;10.280;2024-02-23T06:09:10;98375.28;;;4.66;100.00
62418;BME280;48456;54.242;10.280;2024-02-23T06:11:37;98392.63;;;4.72;100.00
62418;BME280;48456;54.242;10.280;2024-02-23T06:14:03;98392.63;;;4.72;100.00
62418;BME280;48456;54.242;10.280;2024-02-23T06:16:30;98394.28;;;4.77;100.00
62418;BME280;48456;54.242;10.280;2024-02-23T06:18:56;98396.75;;;4.84;100.00
62418;BME280;48456;54.242;10.280;2024-02-23T06:21:23;98415.09;;;4.84;100.00
62418;BME280;48456;54.242;10.280;2024-02-23T06:23:49;98400.22;;;4.86;100.00
62418;BME280;48456;54.242;10.280;2024-02-23T06:26:16;98418.44;;;4.92;100.00
62418;BME280;48456;54.242;10.280;2024-02-23T06:28:42;98414.09;;;4.91;100.00
62418;BME280;48456;54.242;10.280;2024-02-23T06:31:09;98418.47;;;4.89;100.00
62418;BME280;48456;54.242;10.280;2024-02-23T06:33:50;98426.13;;;5.00;100.00
62418;BME280;48456;54.242;10.280;2024-02-23T06:36:18;98440.13;;;4.99;100.00
62418;BME280;48456;54.242;10.280;2024-02-23T06:38:45;98443.53;;;5.04;100.00
62418;BME280;48456;54.242;10.280;2024-02-23T06:41:11;98450.53;;;5.03;100.00
62418;BME280;48456;54.242;10.280;2024-02-23T06:43:38;98455.84;;;4.99;100.00
62418;BME280;48456;54.242;10.280;2024-02-23T06:46:07;98452.34;;;4.98;100.00
62418;BME280;48456;54.242;10.280;2024-02-23T06:48:35;98474.16;;;5.02;100.00
62418;BME280;48456;54.242;10.280;2024-02-23T06:51:02;98466.34;;;4.97;100.00
62418;BME280;48456;54.242;10.280;2024-02-23T06:53:28;98483.00;;;4.94;100.00
62418;BME280;48456;54.242;10.280;2024-02-23T06:55:55;98487.28;;;4.99;100.00
62418;BME280;48456;54.242;10.280;2024-02-23T06:58:21;98500.41;;;4.97;100.00
62418;BME280;48456;54.242;10.280;2024-02-23T07:00:48;98519.63;;;4.99;100.00
62418;BME280;48456;54.242;10.280;2024-02-23T07:03:14;98518.72;;;5.00;100.00
62418;BME280;48456;54.242;10.280;2024-02-23T07:05:41;98524.94;;;4.94;100.00
62418;BME280;48456;54.242;10.280;2024-02-23T07:08:11;98532.00;;;4.91;100.00
62418;BME280;48456;54.242;10.280;2024-02-23T07:10:38;98533.72;;;4.90;100.00
62418;BME280;48456;54.242;10.280;2024-02-23T07:13:04;98532.00;;;4.89;100.00
62418;BME280;48456;54.242;10.280;2024-02-23T07:15:33;98531.13;;;4.89;100.00
62418;BME280;48456;54.242;10.280;2024-02-23T07:17:59;98541.59;;;4.90;100.00
62418;BME280;48456;54.242;10.280;2024-02-23T07:20:25;98563.44;;;4.89;100.00
62418;BME280;48456;54.242;10.280;2024-02-23T07:22:52;98550.34;;;4.89;100.00
62418;BME280;48456;54.242;10.280;2024-02-23T07:25:18;98561.72;;;4.88;100.00
62418;BME280;48456;54.242;10.280;2024-02-23T07:27:48;98571.31;;;4.88;100.00
62418;BME280;48456;54.242;10.280;2024-02-23T07:30:17;98554.78;;;4.86;100.00
62418;BME280;48456;54.242;10.280;2024-02-23T07:32:44;98567.94;;;4.81;100.00
62418;BME280;48456;54.242;10.280;2024-02-23T07:35:18;98561.84;;;4.79;100.00
62418;BME280;48456;54.242;10.280;2024-02-23T07:37:44;98572.31;;;4.80;100.00
62418;BME280;48456;54.242;10.280;2024-02-23T07:40:11;98563.44;;;4.89;100.00
62418;BME280;48456;54.242;10.280;2024-02-23T07:42:39;98594.88;;;4.91;100.00
62418;BME280;48456;54.242;10.280;2024-02-23T07:45:06;98596.69;;;4.86;100.00
62418;BME280;48456;54.242;10.280;2024-02-23T07:47:32;98584.38;;;4.91;100.00
62418;BME280;48456;54.242;10.280;2024-02-23T07:49:59;98604.50;;;4.89;100.00
62418;BME280;48456;54.242;10.280;2024-02-23T07:52:26;98614.16;;;4.87;100.00
62418;BME280;48456;54.242;10.280;2024-02-23T07:54:54;98594.94;;;4.86;100.00
62418;BME280;48456;54.242;10.280;2024-02-23T07:57:20;98620.94;;;4.97;100.00
62418;BME280;48456;54.242;10.280;2024-02-23T07:59:47;98604.19;;;5.09;100.00
62418;BME280;48456;54.242;10.280;2024-02-23T08:02:15;98611.22;;;5.05;100.00
62418;BME280;48456;54.242;10.280;2024-02-23T08:04:42;98629.47;;;5.10;100.00
62418;BME280;48456;54.242;10.280;2024-02-23T08:07:10;98630.28;;;5.14;100.00
62418;BME280;48456;54.242;10.280;2024-02-23T08:09:37;98641.56;;;5.17;100.00
62418;BME280;48456;54.242;10.280;2024-02-23T08:12:03;98652.94;;;5.18;100.00
62418;BME280;48456;54.242;10.280;2024-02-23T08:14:30;98649.38;;;5.20;100.00
62418;BME280;48456;54.242;10.280;2024-02-23T08:16:57;98631.94;;;5.19;100.00
62418;BME280;48456;54.242;10.280;2024-02-23T08:19:24;98655.69;;;5.10;100.00
62418;BME280;48456;54.242;10.280;2024-02-23T08:21:50;98658.38;;;5.05;100.00
62418;BME280;48456;54.242;10.280;2024-02-23T08:24:17;98660.94;;;5.10;100.00
62418;BME280;48456;54.242;10.280;2024-02-23T08:26:43;98676.53;;;5.16;100.00
62418;BME280;48456;54.242;10.280;2024-02-23T08:29:10;98659.84;;;5.24;100.00
62418;BME280;48456;54.242;10.280;2024-02-23T08:31:37;98665.88;;;5.27;100.00
62418;BME280;48456;54.242;10.280;2024-02-23T08:34:07;98677.19;;;5.31;100.00
62418;BME280;48456;54.242;10.280;2024-02-23T08:36:34;98675.50;;;5.28;100.00
62418;BME280;48456;54.242;10.280;2024-02-23T08:39:00;98684.31;;;5.23;100.00
62418;BME280;48456;54.242;10.280;2024-02-23T08:41:27;98685.25;;;5.20;100.00
62418;BME280;48456;54.242;10.280;2024-02-23T08:43:53;98696.56;;;5.22;100.00
62418;BME280;48456;54.242;10.280;2024-02-23T08:46:22;98695.53;;;5.32;100.00
62418;BME280;48456;54.242;10.280;2024-02-23T08:48:48;98685.94;;;5.30;100.00
62418;BME280;48456;54.242;10.280;2024-02-23T08:51:15;98706.50;;;5.53;100.00
62418;BME280;48456;54.242;10.280;2024-02-23T08:53:42;98707.97;;;5.70;100.00
62418;BME280;48456;54.242;10.280;2024-02-23T08:56:09;98707.16;;;5.68;100.00
62418;BME280;48456;54.242;10.280;2024-02-23T08:58:37;98711.31;;;5.78;100.00
62418;BME280;48456;54.242;10.280;2024-02-23T09:01:03;98712.03;;;5.88;100.00
62418;BME280;48456;54.242;10.280;2024-02-23T09:03:30;98714.03;;;5.74;100.00
62418;BME280;48456;54.242;10.280;2024-02-23T09:05:57;98721.78;;;5.80;100.00
62418;BME280;48456;54.242;10.280;2024-02-23T09:08:24;98732.91;;;5.94;100.00
62418;BME280;48456;54.242;10.280;2024-02-23T09:10:51;98741.69;;;5.92;100.00
62418;BME280;48456;54.242;10.280;2024-02-23T09:13:17;98739.47;;;6.19;100.00
62418;BME280;48456;54.242;10.280;2024-02-23T09:15:43;98740.88;;;6.37;100.00
62418;BME280;48456;54.242;10.280;2024-02-23T09:18:10;98748.13;;;6.24;100.00
62418;BME280;48456;54.242;10.280;2024-02-23T09:20:36;98755.81;;;6.33;100.00
62418;BME280;48456;54.242;10.280;2024-02-23T09:23:03;98753.94;;;6.39;100.00
62418;BME280;48456;54.242;10.280;2024-02-23T09:25:29;98750.91;;;6.60;100.00
62418;BME280;48456;54.242;10.280;2024-02-23T09:27:59;98767.44;;;6.66;100.00
62418;BME280;48456;54.242;10.280;2024-02-23T09:30:25;98760.22;;;6.75;100.00
62418;BME280;48456;54.242;10.280;2024-02-23T09:32:52;98766.25;;;6.79;100.00
62418;BME280;48456;54.242;10.280;2024-02-23T09:35:18;98759.59;;;6.62;100.00
62418;BME280;48456;54.242;10.280;2024-02-23T09:37:45;98764.34;;;6.45;100.00
62418;BME280;48456;54.242;10.280;2024-02-23T09:40:12;98782.56;;;6.53;100.00
62418;BME280;48456;54.242;10.280;2024-02-23T09:42:38;98779.88;;;6.56;100.00
62418;BME280;48456;54.242;10.280;2024-02-23T09:45:05;98796.53;;;6.56;100.00
62418;BME280;48456;54.242;10.280;2024-02-23T09:47:32;98805.47;;;6.46;100.00
62418;BME280;48456;54.242;10.280;2024-02-23T09:49:58;98800.97;;;6.53;100.00
62418;BME280;48456;54.242;10.280;2024-02-23T09:52:27;98820.22;;;6.53;100.00
62418;BME280;48456;54.242;10.280;2024-02-23T09:54:55;98811.03;;;6.74;100.00
62418;BME280;48456;54.242;10.280;2024-02-23T09:57:21;98821.50;;;6.76;100.00
62418;BME280;48456;54.242;10.280;2024-02-23T09:59:48;98817.00;;;6.81;100.00
62418;BME280;48456;54.242;10.280;2024-02-23T10:02:16;98831.09;;;6.79;100.00
62418;BME280;48456;54.242;10.280;2024-02-23T10:04:43;98837.28;;;6.76;100.00
62418;BME280;48456;54.242;10.280;2024-02-23T10:07:09;98827.03;;;6.62;100.00
62418;BME280;48456;54.242;10.280;2024-02-23T10:09:36;98847.19;;;6.63;100.00
62418;BME280;48456;54.242;10.280;2024-02-23T10:12:03;98862.94;;;6.63;100.00
62418;BME280;48456;54.242;10.280;2024-02-23T10:14:30;98876.44;;;6.88;100.00
62418;BME280;48456;54.242;10.280;2024-02-23T10:16:56;98877.59;;;6.75;100.00
62418;BME280;48456;54.242;10.280;2024-02-23T10:19:23;98890.91;;;6.67;100.00
62418;BME280;48456;54.242;10.280;2024-02-23T10:21:55;98893.38;;;6.75;100.00
62418;BME280;48456;54.242;10.280;2024-02-23T10:24:25;98896.06;;;6.70;100.00
62418;BME280;48456;54.242;10.280;2024-02-23T10:26:51;98911.72;;;6.78;100.00
62418;BME280;48456;54.242;10.280;2024-02-23T10:29:18;98909.94;;;6.77;100.00
62418;BME280;48456;54.242;10.280;2024-02-23T10:31:48;98910.53;;;6.93;100.00
62418;BME280;48456;54.242;10.280;2024-02-23T10:34:17;98923.25;;;7.15;100.00
62418;BME280;48456;54.242;10.280;2024-02-23T10:36:44;98926.63;;;7.22;100.00
62418;BME280;48456;54.242;10.280;2024-02-23T10:39:15;98930.22;;;7.18;100.00
62418;BME280;48456;54.242;10.280;2024-02-23T10:41:46;98936.41;;;7.15;100.00
62418;BME280;48456;54.242;10.280;2024-02-23T10:44:13;98935.75;;;7.04;100.00
62418;BME280;48456;54.242;10.280;2024-02-23T10:46:42;98941.94;;;6.99;100.00
62418;BME280;48456;54.242;10.280;2024-02-23T10:49:08;98944.75;;;6.92;100.00
62418;BME280;48456;54.242;10.280;2024-02-23T10:51:36;98949.88;;;6.96;100.00
62418;BME280;48456;54.242;10.280;2024-02-23T10:54:04;98951.28;;;7.16;100.00
62418;BME280;48456;54.242;10.280;2024-02-23T10:56:32;98954.53;;;7.29;100.00
62418;BME280;48456;54.242;10.280;2024-02-23T10:58:59;98949.09;;;7.37;100.00
62418;BME280;48456;54.242;10.280;2024-02-23T11:01:25;98960.25;;;7.50;100.00
62418;BME280;48456;54.242;10.280;2024-02-23T11:03:52;98948.91;;;7.46;100.00
62418;BME280;48456;54.242;10.280;2024-02-23T11:06:19;98957.63;;;7.48;100.00
62418;BME280;48456;54.242;10.280;2024-02-23T11:08:48;98962.66;;;7.17;100.00
62418;BME280;48456;54.242;10.280;2024-02-23T11:11:15;98959.69;;;7.32;100.00
62418;BME280;48456;54.242;10.280;2024-02-23T11:13:44;98958.25;;;7.17;100.00
62418;BME280;48456;54.242;10.280;2024-02-23T11:16:10;98965.91;;;7.30;100.00
62418;BME280;48456;54.242;10.280;2024-02-23T11:18:38;98964.63;;;7.49;100.00
62418;BME280;48456;54.242;10.280;2024-02-23T11:21:05;98958.69;;;7.39;100.00
62418;BME280;48456;54.242;10.280;2024-02-23T11:23:42;98958.28;;;7.58;100.00
62418;BME280;48456;54.242;10.280;2024-02-23T11:26:09;98960.97;;;8.32;100.00
62418;BME280;48456;54.242;10.280;2024-02-23T11:28:49;98960.94;;;8.70;100.00
62418;BME280;48456;54.242;10.280;2024-02-23T11:31:19;98961.25;;;9.25;100.00
62418;BME280;48456;54.242;10.280;2024-02-23T11:33:49;98971.81;;;9.25;100.00
62418;BME280;48456;54.242;10.280;2024-02-23T11:36:29;98966.13;;;8.37;100.00
62418;BME280;48456;54.242;10.280;2024-02-23T11:38:58;98968.19;;;8.24;100.00
62418;BME280;48456;54.242;10.280;2024-02-23T11:41:25;98961.97;;;7.90;100.00
62418;BME280;48456;54.242;10.280;2024-02-23T11:43:52;98963.09;;;7.80;100.00
62418;BME280;48456;54.242;10.280;2024-02-23T11:46:19;98973.94;;;7.64;100.00
62418;BME280;48456;54.242;10.280;2024-02-23T11:48:46;98968.81;;;7.58;100.00
62418;BME280;48456;54.242;10.280;2024-02-23T11:51:13;98975.16;;;7.49;100.00
62418;BME280;48456;54.242;10.280;2024-02-23T11:53:40;98974.19;;;7.53;100.00
62418;BME280;48456;54.242;10.280;2024-02-23T11:56:07;98968.13;;;7.50;99.90
62418;BME280;48456;54.242;10.280;2024-02-23T11:58:34;98967.91;;;7.61;100.00
62418;BME280;48456;54.242;10.280;2024-02-23T12:01:01;98966.47;;;7.85;100.00
62418;BME280;48456;54.242;10.280;2024-02-23T12:03:29;98968.84;;;7.98;100.00
62418;BME280;48456;54.242;10.280;2024-02-23T12:05:57;98976.28;;;7.78;100.00
62418;BME280;48456;54.242;10.280;2024-02-23T12:08:25;98969.34;;;7.74;100.00
62418;BME280;48456;54.242;10.280;2024-02-23T12:10:55;98980.66;;;7.78;100.00
62418;BME280;48456;54.242;10.280;2024-02-23T12:13:22;98977.25;;;7.74;99.96
62418;BME280;48456;54.242;10.280;2024-02-23T12:15:52;98978.31;;;7.65;99.60
62418;BME280;48456;54.242;10.280;2024-02-23T12:18:22;98966.53;;;7.82;99.60
62418;BME280;48456;54.242;10.280;2024-02-23T12:21:14;98980.38;;;7.92;99.64
62418;BME280;48456;54.242;10.280;2024-02-23T12:23:44;98976.00;;;7.91;99.90
62418;BME280;48456;54.242;10.280;2024-02-23T12:26:14;98977.50;;;8.03;98.63
62418;BME280;48456;54.242;10.280;2024-02-23T12:28:41;98984.25;;;8.13;99.45
62418;BME280;48456;54.242;10.280;2024-02-23T12:31:07;98979.63;;;7.87;99.10
62418;BME280;48456;54.242;10.280;2024-02-23T12:33:35;98973.63;;;7.80;97.84
62418;BME280;48456;54.242;10.280;2024-02-23T12:36:02;98985.44;;;8.39;98.18
62418;BME280;48456;54.242;10.280;2024-02-23T12:38:29;98983.47;;;9.47;91.79
62418;BME280;48456;54.242;10.280;2024-02-23T12:40:55;98991.50;;;9.73;90.58
62418;BME280;48456;54.242;10.280;2024-02-23T12:43:22;98994.06;;;9.46;91.80
62418;BME280;48456;54.242;10.280;2024-02-23T12:45:53;98982.44;;;8.88;93.57
62418;BME280;48456;54.242;10.280;2024-02-23T12:48:21;98984.00;;;8.62;94.87
62418;BME280;48456;54.242;10.280;2024-02-23T12:50:48;98980.31;;;8.31;94.61